Kezdőlap
METAR-TAF:

METAR-TAF

Repülőterek :

Ipoh, Malajzia

földrajzi szélesség: 04-34-09N, földrajzi hosszúság: 101-05-35E, magasság: 40 m

Jelenlegi meteorológiai megfigyelések

A jelentés 50 perccel ezelõtt készült, 03:00 UTC
Különbözõ irányokból fújó szél 3 kt
Hőmérséklet 29°C
Páratartalom 74%
Légköri nyomás 1009 hPa
Látótávolság 10 km, vagy több
Kevés felhő 2000 lábon

METAR: WMKI 220300Z VRB03KT 9999 FEW020 29/24 Q1009

Idő: 11:50 (03:50 UTC)

Előrejelzés

A jelentés 4 órával és 50 perccel ezelõtt készült, 23:00 UTC
Az előrejelzés 22-én 00 óra UTC és 23-én 00 óra UTC között érvényes
Észak-északkeleti szél 5 kt
Látótávolság: 9000 m
Kevés felhő 2000 lábon

TAF: WMKI 212300Z 2200/2300 02005KT 9000 FEW020

Meteorológiai megfigyelések és előrejelzések több, mint 4000 repülőtéren (METAR és TAF jelentéseket).

A térképen piros és sárga pontok jelzik az elérhető meteorológiai állomásokat.

Mozgassa az egeret a pont fölött, hogy megjelenjen az állomás neve.

Azután kattintson az időjárási megfigyelések és előrejelzések megtekintéséhez.

A térkép megváltoztatása: kattintson a fekete keresztel jelölt zöld gombra ráközelítéshez, a vonallal jelölt zöld gombra távolításhoz, vagy a zöld nyilakra a szomszédos térképek eléréséhez.


METAR-TAF: